createdAt,value
2022-11-17T00:08:49.251Z,73.98
2022-11-17T00:19:10.414Z,76.32
2022-11-17T00:29:12.885Z,73.87
2022-11-17T00:39:17.535Z,73.50
2022-11-17T00:49:21.522Z,73.00
2022-11-17T00:59:25.337Z,73.07
2022-11-17T01:09:27.916Z,73.64
2022-11-17T01:19:31.753Z,73.98
2022-11-17T01:29:34.325Z,73.88
2022-11-17T01:39:38.169Z,72.66
2022-11-17T01:49:41.005Z,70.93
2022-11-17T01:59:47.326Z,71.23
2022-11-17T02:09:50.490Z,70.80
2022-11-17T02:19:58.983Z,70.10
2022-11-17T02:30:04.844Z,69.46
2022-11-17T02:40:10.267Z,68.69
2022-11-17T02:50:14.895Z,68.63
2022-11-17T03:00:19.989Z,68.63
2022-11-17T03:10:27.229Z,71.88
2022-11-17T03:20:34.679Z,74.17
2022-11-17T03:30:39.015Z,74.49
2022-11-17T03:40:45.839Z,75.14
2022-11-17T03:50:52.428Z,75.51
2022-11-17T04:00:57.249Z,75.69
2022-11-17T04:11:17.057Z,74.93
2022-11-17T04:21:20.844Z,76.31
2022-11-17T04:31:24.406Z,76.01
2022-11-17T04:41:46.628Z,77.24
2022-11-17T04:51:49.659Z,77.34
2022-11-17T05:01:53.524Z,77.07
2022-11-17T05:12:13.614Z,77.49
2022-11-17T05:22:36.174Z,76.77
2022-11-17T05:32:38.656Z,77.99
2022-11-17T05:42:42.446Z,79.07
2022-11-17T05:52:44.977Z,77.54
2022-11-17T06:02:51.038Z,77.54
2022-11-17T06:12:53.559Z,76.47
2022-11-17T06:22:58.717Z,77.29
2022-11-17T06:33:01.952Z,76.61
2022-11-17T06:43:08.553Z,76.11
2022-11-17T06:53:12.046Z,75.55
2022-11-17T07:03:15.967Z,75.96
2022-11-17T07:13:18.550Z,76.29
2022-11-17T07:23:23.062Z,77.22
2022-11-17T07:33:25.574Z,77.81
2022-11-17T07:43:29.651Z,78.14
2022-11-17T07:53:33.424Z,77.28
2022-11-17T08:03:37.438Z,78.22
2022-11-17T08:13:40.515Z,77.92
2022-11-17T08:23:44.365Z,79.11
2022-11-17T08:33:46.912Z,78.68
2022-11-17T08:43:50.834Z,77.57
2022-11-17T08:53:53.315Z,74.60
2022-11-17T09:03:57.276Z,73.97
2022-11-17T09:13:59.922Z,73.14
2022-11-17T09:24:03.836Z,71.63
2022-11-17T09:34:06.535Z,70.29
2022-11-17T09:44:27.302Z,68.72
2022-11-17T09:54:31.475Z,67.90
2022-11-17T10:04:35.326Z,66.91
2022-11-17T10:14:40.699Z,66.40
2022-11-17T10:24:46.835Z,65.96
2022-11-17T10:34:49.336Z,65.24
2022-11-17T10:44:55.013Z,64.50
